Terminal Aerodrome Forecast
Issued by NWS

Home | Current Version | Previous Version | Text Only | Print | Product List | Glossary On
Versions: 1 2 3 4 5 6 7 8 9 10 11 12 13 14
999
FTUS43 KOAX 272334
TAFBFF
TAF
KBFF 272334Z 2800/2824 13006KT P6SM VCSH BKN050
     FM280300 VRB03KT P6SM SCT200
     FM281800 30008KT P6SM SCT110=

USA.gov is the U.S. government's official web portal to all federal, state and local government web resources and services.